Impacts METAR Board
IDs:

KBHM - Birmingham Intl, AL, US

Updated at: 1200 UTC 16 Aug 2022
Potential Impact None Slight Moderate High
Time 16/00Z 16/01Z 16/02Z 16/03Z 16/04Z 16/05Z 16/06Z 16/07Z 16/08Z 16/09Z 16/10Z 16/11Z 16/12Z
Temp77 77 76 75 74 74 72 72 71 70 71 70 70
Dewpt74 74 72 72 72 72 70 71 70 69 70 70 69
Altim29.91 29.93 29.94 29.95 29.95 29.95 29.95 29.93 29.92 29.92 29.92 29.93 29.96
VIS7 10 10 10 10 10 10 10 10 6 1.75 0.25 0.5
CIG110 250 -- -- 250 250 -- -- -- -- 2 2 2
CoverOVCBKNSCTSCTBKNBKNSCTFEWCLRSCTOVCOVXOVX
FltCatVFRVFRVFRVFRVFRVFRVFRVFRVFRVFRLIFRLIFRLIFR
WXTS----------------BRFGFGFG
WDir02002102806000000000
WSpd0 4 4 4 3 0 0 0 0 0 0 0 0
WGst-- -- -- -- -- -- -- -- -- -- -- -- --
Raw hourly METARs
KBHM 152353Z 00000KT 7SM TS SCT060CB BKN110 OVC250 25/23 A2991 RMK AO2 LTG DSNT S-W TSB03 SLP120 OCNL LTGIC S TS S MOV SE 60011 T02500233 10339 20239 50010 $
KBHM 160053Z 20004KT 10SM SCT050 SCT110 BKN250 25/23 A2993 RMK AO2 LTG DSNT S AND SW TSE11 SLP126 TS MOV S T02500233 $
KBHM 160153Z 21004KT 10SM FEW060 SCT250 24/22 A2994 RMK AO2 LTG DSNT SW SLP129 T02440222 $
KBHM 160253Z 28004KT 10SM SCT250 24/22 A2995 RMK AO2 SLP133 T02390222 51014 $
KBHM 160353Z 06003KT 10SM BKN250 23/22 A2995 RMK AO2 SLP132 T02330222 $
KBHM 160453Z 00000KT 10SM BKN250 23/22 A2995 RMK AO2 SLP132 T02330222 $
KBHM 160553Z 00000KT 10SM SCT250 22/21 A2995 RMK AO2 SLP131 T02220211 10256 20222 403390222 58002 $
KBHM 160653Z 00000KT 10SM FEW004 22/22 A2993 RMK AO2 SLP126 T02220217 $
KBHM 160753Z 00000KT 10SM CLR 22/21 A2992 RMK AO2 SLP124 T02170211 $
KBHM 160904Z 00000KT 6SM BR SCT002 21/21 A2992 RMK AO2 T02110206 $
KBHM 161000Z 00000KT 1 3/4SM FG OVC002 22/21 A2992 RMK AO2 T02170211 $
KBHM 161053Z 00000KT 1/4SM FG VV002 21/21 A2993 RMK AO2 SLP128 T02110211 RVRNO $
KBHM 161201Z 00000KT 1/2SM FG VV002 21/21 A2996 RMK AO2 T02110206 RVRNO $



Page loaded:  12:59 UTC  |   05:59 AM Pacific  |   06:59 AM Mountain  |   07:59 AM Central  |   08:59 AM Eastern

 

ADVISORIES

FORECASTS

FORECASTS

OBSERVATIONS

USER TOOLS

ABOUT US